Terminal Aerodrome Forecast
Issued by NWS

Current Version | Previous Version | Text Only | Print | Product List | Glossary On
Versions: 1 2 3 4 5 6 7 8 9 10 11 12 13 14
000
FTUS42 KMLB 301120
TAFTIX
TAF
KTIX 301120Z 3012/3112 26005KT P6SM BKN060
     FM301400 26006KT P6SM SCT025 SCT060
     FM301700 09011KT P6SM SCT040 BKN250
     FM302100 12012KT P6SM SCT050 SCT080
     FM310100 VRB04KT P6SM FEW030 BKN120=

USA.gov is the U.S. government's official web portal to all federal, state and local government web resources and services.